createdAt,value
2022-09-23T00:01:21.833Z,10.71
2022-09-23T00:03:50.232Z,10.73
2022-09-23T00:06:20.519Z,10.70
2022-09-23T00:08:49.825Z,10.65
2022-09-23T00:11:19.501Z,10.63
2022-09-23T00:13:48.945Z,10.58
2022-09-23T00:16:20.803Z,10.52
2022-09-23T00:18:52.505Z,10.49
2022-09-23T00:21:21.787Z,10.48
2022-09-23T00:23:50.091Z,10.44
2022-09-23T00:26:19.357Z,10.41
2022-09-23T00:28:48.115Z,10.41
2022-09-23T00:31:20.769Z,10.37
2022-09-23T00:33:53.166Z,10.33
2022-09-23T00:36:20.936Z,10.28
2022-09-23T00:38:48.866Z,10.27
2022-09-23T00:41:17.039Z,10.26
2022-09-23T00:43:44.824Z,10.25
2022-09-23T00:46:16.750Z,10.22
2022-09-23T00:48:44.947Z,10.19
2022-09-23T00:51:17.899Z,10.20
2022-09-23T00:53:47.715Z,10.19
2022-09-23T00:56:16.140Z,10.21
2022-09-23T00:58:45.348Z,10.23
2022-09-23T01:01:14.648Z,10.24
2022-09-23T01:03:44.878Z,10.23
2022-09-23T01:06:13.384Z,10.22
2022-09-23T01:08:43.617Z,10.17
2022-09-23T01:11:30.491Z,10.16
2022-09-23T01:14:12.521Z,10.12
2022-09-23T01:17:06.822Z,10.10
2022-09-23T01:19:46.884Z,10.10
2022-09-23T01:22:38.034Z,10.10
2022-09-23T01:25:05.700Z,10.10
2022-09-23T01:27:45.875Z,10.07
2022-09-23T01:30:32.226Z,10.10
2022-09-23T01:33:08.197Z,10.13
2022-09-23T01:35:37.792Z,10.15
2022-09-23T01:38:17.751Z,10.18
2022-09-23T01:41:03.814Z,10.20
2022-09-23T01:43:47.106Z,10.18
2022-09-23T01:46:20.787Z,10.18
2022-09-23T01:48:51.378Z,10.15
2022-09-23T01:51:23.989Z,10.15
2022-09-23T01:53:56.590Z,10.11
2022-09-23T01:56:27.845Z,10.08
2022-09-23T01:59:06.198Z,10.03
2022-09-23T02:01:37.705Z,9.98
2022-09-23T02:04:09.635Z,9.92
2022-09-23T02:06:43.393Z,9.88
2022-09-23T02:09:12.879Z,9.82
2022-09-23T02:11:45.197Z,9.78
2022-09-23T02:14:19.714Z,9.74
2022-09-23T02:16:50.124Z,9.70
2022-09-23T02:19:27.929Z,9.69
2022-09-23T02:22:08.429Z,9.70
2022-09-23T02:24:37.821Z,9.67
2022-09-23T02:27:15.201Z,9.66
2022-09-23T02:29:49.605Z,9.67
2022-09-23T02:32:17.805Z,9.68
2022-09-23T02:35:10.471Z,9.69
2022-09-23T02:37:38.857Z,9.73
2022-09-23T02:40:23.801Z,9.75
2022-09-23T02:43:12.632Z,9.75
2022-09-23T02:45:40.681Z,9.75
2022-09-23T02:48:26.776Z,9.76
2022-09-23T02:50:54.626Z,9.73
2022-09-23T02:53:23.361Z,9.70
2022-09-23T02:55:51.600Z,9.68
2022-09-23T02:58:19.852Z,9.69
2022-09-23T03:01:05.220Z,9.71
2022-09-23T03:03:49.843Z,9.72
2022-09-23T03:06:39.753Z,9.69
2022-09-23T03:09:27.676Z,9.65
2022-09-23T03:12:15.753Z,9.67
2022-09-23T03:15:02.515Z,9.70
2022-09-23T03:17:34.568Z,9.73
2022-09-23T03:20:09.989Z,9.76
2022-09-23T03:22:41.052Z,9.79
2022-09-23T03:25:11.380Z,9.79
2022-09-23T03:27:42.539Z,9.80
2022-09-23T03:30:10.998Z,9.79
2022-09-23T03:32:42.082Z,9.79
2022-09-23T03:35:10.491Z,9.79
2022-09-23T03:37:44.719Z,9.78
2022-09-23T03:40:15.533Z,9.76
2022-09-23T03:42:43.406Z,9.74
2022-09-23T03:45:17.454Z,9.72
2022-09-23T03:47:45.777Z,9.70
2022-09-23T03:50:14.187Z,9.67
2022-09-23T03:52:42.468Z,9.64
2022-09-23T03:55:11.413Z,9.66
2022-09-23T03:57:39.773Z,9.69
2022-09-23T04:00:08.114Z,9.71
2022-09-23T04:02:42.299Z,9.71
2022-09-23T04:05:11.198Z,9.70
2022-09-23T04:07:39.092Z,9.74
2022-09-23T04:10:07.322Z,9.76
2022-09-23T04:12:35.249Z,9.79
2022-09-23T04:15:03.436Z,9.79
2022-09-23T04:17:31.637Z,9.74
2022-09-23T04:19:59.279Z,9.67
2022-09-23T04:22:27.449Z,9.64
2022-09-23T04:24:55.323Z,9.62
2022-09-23T04:27:23.529Z,9.61
2022-09-23T04:29:52.264Z,9.63
2022-09-23T04:32:19.970Z,9.69
2022-09-23T04:34:48.377Z,9.73
2022-09-23T04:37:16.726Z,9.80
2022-09-23T04:39:44.429Z,9.81
2022-09-23T04:42:12.147Z,9.82
2022-09-23T04:44:39.873Z,9.86
2022-09-23T04:47:07.624Z,9.90
2022-09-23T04:49:36.092Z,9.93
2022-09-23T04:52:05.810Z,9.95
2022-09-23T04:54:33.868Z,9.93
2022-09-23T04:57:01.765Z,9.98
2022-09-23T04:59:30.508Z,10.01
2022-09-23T05:01:58.703Z,10.00
2022-09-23T05:04:26.584Z,9.99
2022-09-23T05:06:54.302Z,10.01
2022-09-23T05:09:22.251Z,10.01
2022-09-23T05:11:50.179Z,10.02
2022-09-23T05:14:18.124Z,10.06
2022-09-23T05:16:45.813Z,10.09
2022-09-23T05:19:13.851Z,10.16
2022-09-23T05:21:42.076Z,10.26
2022-09-23T05:24:10.774Z,10.31
2022-09-23T05:26:38.965Z,10.36
2022-09-23T05:29:06.987Z,10.41
2022-09-23T05:31:35.091Z,10.43
2022-09-23T05:34:04.765Z,10.48
2022-09-23T05:36:38.379Z,10.55
2022-09-23T05:39:08.022Z,10.62
2022-09-23T05:41:36.795Z,10.66
2022-09-23T05:44:04.908Z,10.68
2022-09-23T05:46:33.549Z,10.70
